createdAt,value
2023-01-04T00:00:59.373Z,6.3
2023-01-04T00:06:23.664Z,6.4
2023-01-04T00:11:30.797Z,6.5
2023-01-04T00:16:42.365Z,6.6
2023-01-04T00:22:04.137Z,6.7
2023-01-04T00:27:11.272Z,6.8
2023-01-04T00:32:22.390Z,6.8
2023-01-04T00:37:51.833Z,6.8
2023-01-04T00:43:41.679Z,6.8
2023-01-04T00:49:05.700Z,6.8
2023-01-04T00:54:28.696Z,6.8
2023-01-04T00:59:50.936Z,6.7
2023-01-04T01:05:07.025Z,6.6
2023-01-04T01:10:14.568Z,6.5
2023-01-04T01:15:36.189Z,6.4
2023-01-04T01:21:13.169Z,6.3
2023-01-04T01:26:20.208Z,6.3
2023-01-04T01:31:43.058Z,6.2
2023-01-04T01:36:34.653Z,6.2
2023-01-04T01:41:57.401Z,6.2
2023-01-04T01:47:19.450Z,6.1
2023-01-04T01:52:41.724Z,6.1
2023-01-04T01:57:49.127Z,6.1
2023-01-04T02:03:13.774Z,6.1
2023-01-04T02:08:21.194Z,6.1
2023-01-04T02:13:44.108Z,6.1
2023-01-04T02:18:50.816Z,6
2023-01-04T02:24:12.814Z,5.9
2023-01-04T02:29:35.924Z,5.9
2023-01-04T02:34:58.957Z,5.9
2023-01-04T02:40:22.084Z,5.9
2023-01-04T02:45:36.873Z,6
2023-01-04T02:50:44.657Z,6.1
2023-01-04T02:55:51.609Z,6.1
2023-01-04T03:00:50.788Z,6.1
2023-01-04T03:05:44.096Z,6.1
2023-01-04T03:10:50.935Z,6.1
2023-01-04T03:16:03.328Z,6
2023-01-04T03:21:10.853Z,6
2023-01-04T03:26:02.248Z,5.9
2023-01-04T03:30:38.269Z,5.9
2023-01-04T03:35:29.908Z,5.9
2023-01-04T03:40:05.452Z,5.9
2023-01-04T03:44:41.152Z,5.9
2023-01-04T03:49:07.403Z,5.9
2023-01-04T03:53:58.516Z,5.9
2023-01-04T03:58:35.014Z,6
2023-01-04T04:03:27.286Z,6.1
2023-01-04T04:08:35.067Z,6.2
2023-01-04T04:13:10.947Z,6.2
2023-01-04T04:18:02.981Z,6.3
2023-01-04T04:22:54.682Z,6.4
2023-01-04T04:27:15.397Z,6.4
2023-01-04T04:31:51.353Z,6.4
2023-01-04T04:36:27.769Z,6.5
2023-01-04T04:41:19.587Z,6.6
2023-01-04T04:46:27.211Z,6.6
2023-01-04T04:51:18.844Z,6.6
2023-01-04T04:56:10.368Z,6.7
2023-01-04T05:01:17.707Z,6.7
2023-01-04T05:06:10.663Z,6.8
2023-01-04T05:11:02.289Z,6.8
2023-01-04T05:15:53.986Z,6.8
2023-01-04T05:20:46.113Z,6.9
2023-01-04T05:25:39.199Z,6.9
2023-01-04T05:30:46.263Z,6.9
2023-01-04T05:35:37.695Z,6.9
2023-01-04T05:40:29.326Z,6.9
2023-01-04T05:45:36.699Z,6.9
2023-01-04T05:50:12.541Z,6.9
2023-01-04T05:54:55.124Z,6.9
2023-01-04T05:59:52.275Z,6.9
2023-01-04T06:04:30.223Z,6.9
2023-01-04T06:09:23.021Z,7
2023-01-04T06:14:22.066Z,7
2023-01-04T06:19:14.182Z,7
2023-01-04T06:23:49.847Z,7.1
2023-01-04T06:28:57.915Z,7.1
2023-01-04T06:33:49.617Z,7.2
2023-01-04T06:39:15.176Z,7.3
2023-01-04T06:44:27.501Z,7.3
2023-01-04T06:49:38.937Z,7.4
2023-01-04T06:54:46.480Z,7.4
2023-01-04T06:59:52.848Z,7.6
2023-01-04T07:05:36.488Z,7.9
2023-01-04T07:10:29.570Z,8.1
2023-01-04T07:15:54.994Z,8.4
2023-01-04T07:20:46.940Z,8.8
2023-01-04T07:25:59.451Z,9.1
2023-01-04T07:31:05.779Z,9.3
2023-01-04T07:36:15.784Z,9.6
2023-01-04T07:41:30.185Z,9.9
2023-01-04T07:46:40.076Z,10.1
2023-01-04T07:51:54.301Z,10.3
2023-01-04T07:56:52.526Z,10.6
2023-01-04T08:01:44.194Z,10.8
2023-01-04T08:06:39.991Z,11.1
2023-01-04T08:11:16.700Z,11.3
2023-01-04T08:15:52.555Z,11.6
2023-01-04T08:20:59.919Z,11.8
2023-01-04T08:25:51.191Z,12
2023-01-04T08:30:47.696Z,12.1
2023-01-04T08:36:10.197Z,12.4
2023-01-04T08:43:34.630Z,12.8
2023-01-04T08:48:45.265Z,13.1
2023-01-04T08:53:56.247Z,13.4
2023-01-04T08:58:54.019Z,13.7
2023-01-04T09:04:10.586Z,14
2023-01-04T09:09:23.938Z,14.2
2023-01-04T09:14:23.934Z,14.3
2023-01-04T09:20:01.198Z,14.3
2023-01-04T09:25:09.449Z,14.3
2023-01-04T09:30:34.665Z,14.2
2023-01-04T09:36:19.027Z,14.1
2023-01-04T09:41:28.783Z,14
2023-01-04T09:47:53.204Z,13.9
2023-01-04T09:53:00.459Z,13.9
2023-01-04T09:58:34.845Z,13.9
2023-01-04T10:03:44.177Z,13.9
2023-01-04T10:08:51.721Z,14
2023-01-04T10:13:59.128Z,14.1
2023-01-04T10:22:46.190Z,14.8
2023-01-04T10:27:59.234Z,15.7
2023-01-04T10:33:43.695Z,16.9
2023-01-04T10:38:53.269Z,17.2
2023-01-04T10:44:43.924Z,16.9
2023-01-04T10:49:59.294Z,16.6
2023-01-04T10:55:11.313Z,16.4
2023-01-04T11:00:58.380Z,16.2
2023-01-04T11:06:07.736Z,16.1
2023-01-04T11:11:33.519Z,16.2
2023-01-04T11:16:42.815Z,16.3
2023-01-04T11:21:56.277Z,16.4
2023-01-04T11:28:21.890Z,16.8
2023-01-04T11:32:58.213Z,17.3
2023-01-04T11:37:50.076Z,17.8
2023-01-04T11:43:00.138Z,19.3
2023-01-04T11:48:14.420Z,22.7
2023-01-04T11:53:22.506Z,26
2023-01-04T11:58:45.203Z,30.2
2023-01-04T12:04:52.285Z,39.9
2023-01-04T12:10:20.264Z,44.7
2023-01-04T12:15:43.581Z,48.2
2023-01-04T12:20:54.461Z,47.6
2023-01-04T12:25:51.371Z,45.6
2023-01-04T12:30:59.969Z,42.9
2023-01-04T12:36:25.358Z,40
2023-01-04T12:41:53.773Z,37.3
2023-01-04T12:47:16.897Z,34.5
2023-01-04T12:54:10.626Z,31.5
2023-01-04T13:00:17.516Z,29.1
2023-01-04T13:06:43.871Z,26.8
2023-01-04T13:11:53.419Z,24.9
2023-01-04T13:17:05.821Z,23.5
2023-01-04T13:22:29.819Z,22.3
2023-01-04T13:27:52.894Z,21.1
2023-01-04T13:33:48.877Z,20
2023-01-04T13:39:14.952Z,18.9
2023-01-04T13:45:09.023Z,18
2023-01-04T13:50:39.793Z,17.2
2023-01-04T13:56:40.053Z,16.3
2023-01-04T14:01:55.583Z,15.6
2023-01-04T14:07:03.841Z,15.1
2023-01-04T14:12:26.778Z,14.5
2023-01-04T14:17:49.828Z,14
2023-01-04T14:22:58.020Z,13.4
2023-01-04T14:28:49.261Z,13
2023-01-04T14:33:57.688Z,12.6
2023-01-04T14:39:10.117Z,12.1
2023-01-04T14:44:21.108Z,11.8
2023-01-04T14:49:36.872Z,11.4
2023-01-04T14:54:44.370Z,11
2023-01-04T14:59:51.461Z,10.8
2023-01-04T15:04:45.519Z,10.4
2023-01-04T15:09:55.140Z,10.2
2023-01-04T15:15:09.048Z,9.9
2023-01-04T15:20:17.206Z,9.7
2023-01-04T15:25:26.238Z,9.4
2023-01-04T15:30:56.054Z,9.3
2023-01-04T15:36:21.764Z,9
2023-01-04T15:42:04.906Z,8.8
2023-01-04T15:47:34.291Z,8.6
2023-01-04T15:53:01.230Z,8.5
2023-01-04T15:58:17.853Z,8.3
2023-01-04T16:03:34.997Z,8.2
2023-01-04T16:08:49.418Z,8.1
2023-01-04T16:14:12.639Z,7.9
2023-01-04T16:19:40.859Z,7.8
2023-01-04T16:25:28.160Z,7.8
2023-01-04T16:30:51.261Z,7.6
2023-01-04T16:35:59.256Z,7.6
2023-01-04T16:41:51.702Z,7.4
2023-01-04T16:47:17.663Z,7.4
2023-01-04T16:52:24.928Z,7.3
2023-01-04T16:57:47.563Z,7.3
2023-01-04T17:03:20.426Z,7.2
2023-01-04T17:08:43.934Z,7.1
2023-01-04T17:15:42.735Z,7
2023-01-04T17:20:53.514Z,7
2023-01-04T17:26:24.057Z,6.9
2023-01-04T17:31:36.093Z,6.9
2023-01-04T17:36:59.928Z,6.9
2023-01-04T17:42:09.791Z,6.8
2023-01-04T17:47:20.082Z,6.8
2023-01-04T17:52:58.660Z,6.8
2023-01-04T17:58:08.043Z,6.7
2023-01-04T18:03:04.308Z,6.7
2023-01-04T18:08:46.529Z,6.6
2023-01-04T18:14:38.227Z,6.6
2023-01-04T18:20:03.412Z,6.5
2023-01-04T18:26:06.136Z,6.5
2023-01-04T18:31:49.500Z,6.4
2023-01-04T18:37:02.208Z,6.4
2023-01-04T18:42:26.380Z,6.4
2023-01-04T18:48:18.840Z,6.4
2023-01-04T18:53:12.313Z,6.4
2023-01-04T18:58:27.067Z,6.4
2023-01-04T19:03:39.065Z,6.4
2023-01-04T19:08:53.361Z,6.3
2023-01-04T19:14:03.298Z,6.3
2023-01-04T19:19:15.923Z,6.3
2023-01-04T19:24:23.356Z,6.3
2023-01-04T19:29:30.883Z,6.3
2023-01-04T19:34:23.290Z,6.3
2023-01-04T19:39:30.640Z,6.2
2023-01-04T19:44:45.503Z,6.1
2023-01-04T19:49:37.595Z,6.1
2023-01-04T19:54:44.586Z,6.1
2023-01-04T20:00:07.512Z,6
2023-01-04T20:05:32.443Z,6
2023-01-04T20:10:47.813Z,5.9
2023-01-04T20:15:54.946Z,5.9
2023-01-04T20:21:09.184Z,5.8
2023-01-04T20:26:15.808Z,5.8
2023-01-04T20:31:23.037Z,5.7
2023-01-04T20:36:36.375Z,5.6
2023-01-04T20:41:51.258Z,5.6
2023-01-04T20:47:04.644Z,5.6
2023-01-04T20:52:11.877Z,5.6
2023-01-04T20:57:37.937Z,5.5
2023-01-04T21:02:52.590Z,5.5
2023-01-04T21:08:00.721Z,5.4
2023-01-04T21:13:09.162Z,5.4
2023-01-04T21:18:01.318Z,5.4
2023-01-04T21:23:08.287Z,5.4
2023-01-04T21:28:16.081Z,5.4
2023-01-04T21:33:23.615Z,5.3
2023-01-04T21:38:35.779Z,5.4
2023-01-04T21:43:49.422Z,5.4
2023-01-04T21:48:56.597Z,5.4
2023-01-04T21:54:03.596Z,5.4
2023-01-04T21:59:18.784Z,5.4
2023-01-04T22:03:57.433Z,5.4
2023-01-04T22:09:20.412Z,5.4
2023-01-04T22:14:31.707Z,5.5
2023-01-04T22:19:39.870Z,5.5
2023-01-04T22:24:54.026Z,5.5
2023-01-04T22:30:05.942Z,5.5
2023-01-04T22:35:13.113Z,5.5
2023-01-04T22:40:24.586Z,5.4
2023-01-04T22:45:31.534Z,5.4
2023-01-04T22:50:24.627Z,5.3
2023-01-04T22:55:46.106Z,5.2
2023-01-04T23:00:59.598Z,5.1
2023-01-04T23:05:52.923Z,4.9
2023-01-04T23:10:59.854Z,4.8
2023-01-04T23:16:07.039Z,4.7
2023-01-04T23:21:23.523Z,4.6
2023-01-04T23:26:15.767Z,4.6
2023-01-04T23:31:07.382Z,4.4
2023-01-04T23:36:14.800Z,4.4
2023-01-04T23:41:06.876Z,4.3
2023-01-04T23:45:57.828Z,4.2
2023-01-04T23:51:19.126Z,4.1
2023-01-04T23:56:42.314Z,4
